Arden Hills, Minnesota
Current Conditions -  °F | °C
As of 11:55 AM on Monday 24 Nov 2014 (Local Time) from KANE Reporting Station
Overcast Overcast  
Wind Chill:   Ceiling: 1900
Heat Index: 23°   Visibility: 10mi
Dew Point: 19°   Wind: 17mph
Humidity: 86%   Direction: 300°WNW
Pressure: 29.44"   Gusts: 25mph
Location:  45.0848°N, 93.136°W
Report Text: KANE 241755Z 30015G22KT 10SM OVC019 M05/M07 A2944
Loading
Personal Weather Stations






























Interactive Weather Map New forecast layout! Learn more

10-Day Weather Forecast

Advertisements
Track Severe Weather on mobile